Cape Providence — 3EWQ — position and weather

sailwx.info

Track history (hours):
 
Tides and Currents Weather Stations Pressure Air Temp Water Temp Dewpoint Dewpoint Depression Visibility Wind Speed Wind Dir Waves Ship Positions

Cape Providence

Last reported at 2018-Apr-02 10:39 UTC. Time now 2018-Apr-23 23:23 UTC.
Position N 23°35' E 123°21'.
Warning: this ship's position is 21 days out of date.

Length 292 m; draft 8.7 m.

Type: Cargo ship. MMSI: 372773000.

Date/timePositionNaut miles runAvg speedWind from/ knotsBaromVisibWave heightAir tempDewpointWater temp
2018-Apr-02 10:39N 23°35' E 123°21'210.9
2018-Apr-02 10:30N 23°37' E 123°20'511.1
2018-Apr-02 10:01N 23°42' E 123°17'510.6
2018-Apr-02 09:30N 23°46' E 123°13'510.7
2018-Apr-02 09:01N 23°48' E 123°08'510.4
2018-Apr-02 08:30N 23°51' E 123°03'510.5
2018-Apr-02 08:01N 23°55' E 122°60'510.7
2018-Apr-02 07:30N 23°59' E 122°55'510.8
2018-Apr-02 07:01N 24°02' E 122°51'510.5
2018-Apr-02 06:30N 24°07' E 122°48'510.9
2018-Apr-02 06:00N 24°12' E 122°46'510.7
2018-Apr-02 05:31N 24°17' E 122°44'510.8
2018-Apr-02 05:01N 24°22' E 122°42'510.6
2018-Apr-02 04:31N 24°27' E 122°41'510.4
2018-Apr-02 04:00N 24°32' E 122°39'510.3
2018-Apr-02 03:30N 24°37' E 122°37'5 9.9
2018-Apr-02 03:00N 24°42' E 122°36'5 9.9
2018-Apr-02 02:31N 24°47' E 122°35'5 9.9
2018-Apr-02 02:01N 24°52' E 122°34'510.0
2018-Apr-02 01:31N 24°56' E 122°33'5 9.5
2018-Apr-02 01:01N 25°01' E 122°31'4 8.8
2018-Apr-02 00:30N 25°05' E 122°30'5 9.4
2018-Apr-02 00:01N 25°10' E 122°28'611.5
2018-Apr-01 23:30N 25°15' E 122°25'1211.4
2018-Apr-01 22:27N 25°25' E 122°18'12610.0
2018-Apr-01 09:50N 26°27' E 120°16'411.8
2018-Apr-01 09:30N 26°26' E 120°12'712.0
2018-Apr-01 08:58N 26°26' E 120°04'4 7.7
2018-Apr-01 08:28N 26°28' E 120°01'4 7.7
2018-Apr-01 08:00N 26°28' E 119°57'  
2018-Mar-27 18:41N 25°09' E 122°32'210.9
2018-Mar-27 18:30N 25°07' E 122°33'612.0
2018-Mar-27 18:00N 25°02' E 122°31'611.7
2018-Mar-27 17:30N 24°56' E 122°33'611.7
2018-Mar-27 17:00N 24°50' E 122°34'612.4
2018-Mar-27 16:30N 24°44' E 122°35'612.9
2018-Mar-27 16:00N 24°38' E 122°37'612.8
2018-Mar-27 15:30N 24°32' E 122°39'612.1
2018-Mar-27 15:00N 24°26' E 122°41'611.5
2018-Mar-27 14:30N 24°20' E 122°43'611.3
2018-Mar-27 14:00N 24°15' E 122°45'611.3
2018-Mar-27 13:30N 24°10' E 122°46'611.0
2018-Mar-27 13:00N 24°04' E 122°48'611.0
2018-Mar-27 12:30N 23°59' E 122°50'611.0
2018-Mar-27 12:00N 23°54' E 122°52'611.3
2018-Mar-27 11:30N 23°49' E 122°54'611.5
2018-Mar-27 11:00N 23°43' E 122°55'  
Track history (hours):
 
Tides and Currents Weather Stations Pressure Air Temp Water Temp Dewpoint Dewpoint Depression Visibility Wind Speed Wind Dir Waves Ship Positions

Cape Providence

Last reported at 2018-Apr-02 10:39 UTC. Time now 2018-Apr-23 23:23 UTC.
Position N 23°35' E 123°21'.
Warning: this ship's position is 21 days out of date.

Length 292 m; draft 8.7 m.

Type: Cargo ship. MMSI: 372773000.

Date/timePositionNaut miles runAvg speedWind from/ knotsBaromVisibWave heightAir tempDewpointWater temp
2018-Apr-02 10:39N 23°35' E 123°21'210.9
2018-Apr-02 10:30N 23°37' E 123°20'511.1
2018-Apr-02 10:01N 23°42' E 123°17'510.6
2018-Apr-02 09:30N 23°46' E 123°13'510.7
2018-Apr-02 09:01N 23°48' E 123°08'510.4
2018-Apr-02 08:30N 23°51' E 123°03'510.5
2018-Apr-02 08:01N 23°55' E 122°60'510.7
2018-Apr-02 07:30N 23°59' E 122°55'510.8
2018-Apr-02 07:01N 24°02' E 122°51'510.5
2018-Apr-02 06:30N 24°07' E 122°48'510.9
2018-Apr-02 06:00N 24°12' E 122°46'510.7
2018-Apr-02 05:31N 24°17' E 122°44'510.8
2018-Apr-02 05:01N 24°22' E 122°42'510.6
2018-Apr-02 04:31N 24°27' E 122°41'510.4
2018-Apr-02 04:00N 24°32' E 122°39'510.3
2018-Apr-02 03:30N 24°37' E 122°37'5 9.9
2018-Apr-02 03:00N 24°42' E 122°36'5 9.9
2018-Apr-02 02:31N 24°47' E 122°35'5 9.9
2018-Apr-02 02:01N 24°52' E 122°34'510.0
2018-Apr-02 01:31N 24°56' E 122°33'5 9.5
2018-Apr-02 01:01N 25°01' E 122°31'4 8.8
2018-Apr-02 00:30N 25°05' E 122°30'5 9.4
2018-Apr-02 00:01N 25°10' E 122°28'611.5
2018-Apr-01 23:30N 25°15' E 122°25'1211.4
2018-Apr-01 22:27N 25°25' E 122°18'12610.0
2018-Apr-01 09:50N 26°27' E 120°16'411.8
2018-Apr-01 09:30N 26°26' E 120°12'712.0
2018-Apr-01 08:58N 26°26' E 120°04'4 7.7
2018-Apr-01 08:28N 26°28' E 120°01'4 7.7
2018-Apr-01 08:00N 26°28' E 119°57'  
2018-Mar-27 18:41N 25°09' E 122°32'210.9
2018-Mar-27 18:30N 25°07' E 122°33'612.0
2018-Mar-27 18:00N 25°02' E 122°31'611.7
2018-Mar-27 17:30N 24°56' E 122°33'611.7
2018-Mar-27 17:00N 24°50' E 122°34'612.4
2018-Mar-27 16:30N 24°44' E 122°35'612.9
2018-Mar-27 16:00N 24°38' E 122°37'612.8
2018-Mar-27 15:30N 24°32' E 122°39'612.1
2018-Mar-27 15:00N 24°26' E 122°41'611.5
2018-Mar-27 14:30N 24°20' E 122°43'611.3
2018-Mar-27 14:00N 24°15' E 122°45'611.3
2018-Mar-27 13:30N 24°10' E 122°46'611.0
2018-Mar-27 13:00N 24°04' E 122°48'611.0
2018-Mar-27 12:30N 23°59' E 122°50'611.0
2018-Mar-27 12:00N 23°54' E 122°52'611.3
2018-Mar-27 11:30N 23°49' E 122°54'611.5
2018-Mar-27 11:00N 23°43' E 122°55'  

Dump ship's entire track history